Time,TemperatureF,DewpointF,PressureIn,WindDirection,WindDirectionDegrees,WindSpeedMPH,WindSpeedGustMPH,Humidity,HourlyPrecipIn,Conditions,Clouds,dailyrainin,SoftwareType,DateUTC
2013-04-14 00:01:00,38.6,35.0,30.00,SSW,207,0.0,0.0,87,0.00,,,0.00,weatherlink.com 1.10,2013-04-14 04:01:00,
2013-04-14 00:16:00,39.2,35.0,30.01,SSW,207,0.0,0.0,86,0.00,,,0.00,weatherlink.com 1.10,2013-04-14 04:16:00,
2013-04-14 00:30:00,39.5,35.0,30.01,SSW,207,0.0,0.0,85,0.00,,,0.00,weatherlink.com 1.10,2013-04-14 04:30:00,
2013-04-14 00:46:00,39.3,35.0,30.01,SSW,207,0.0,0.0,84,0.00,,,0.00,weatherlink.com 1.10,2013-04-14 04:46:00,
2013-04-14 01:01:00,39.4,36.0,30.00,SSW,207,0.0,0.0,86,0.00,,,0.00,weatherlink.com 1.10,2013-04-14 05:01:00,
2013-04-14 01:16:00,39.7,35.0,30.01,SSW,206,0.0,0.0,84,0.00,,,0.00,weatherlink.com 1.10,2013-04-14 05:16:00,
2013-04-14 01:31:00,40.1,35.0,30.01,SSE,159,0.0,0.0,83,0.00,,,0.00,weatherlink.com 1.10,2013-04-14 05:31:00,
2013-04-14 02:01:00,39.6,35.0,30.01,SSE,158,0.0,0.0,84,0.00,,,0.00,weatherlink.com 1.10,2013-04-14 06:01:00,
2013-04-14 02:16:00,39.6,36.0,30.01,SE,126,0.0,1.0,86,0.00,,,0.00,weatherlink.com 1.10,2013-04-14 06:16:00,
2013-04-14 02:31:00,40.6,36.0,30.01,ESE,120,0.0,2.0,83,0.00,,,0.00,weatherlink.com 1.10,2013-04-14 06:31:00,
2013-04-14 02:46:00,40.4,35.0,30.01,SSE,150,0.0,3.0,82,0.00,,,0.00,weatherlink.com 1.10,2013-04-14 06:46:00,
2013-04-14 03:01:00,40.1,35.0,30.01,ESE,115,0.0,3.0,82,0.00,,,0.00,weatherlink.com 1.10,2013-04-14 07:01:00,
2013-04-14 03:31:00,38.8,34.0,30.01,SE,124,1.0,1.0,84,0.00,,,0.00,weatherlink.com 1.10,2013-04-14 07:31:00,
2013-04-14 03:46:00,39.0,35.0,30.00,ENE,60,1.0,2.0,84,0.00,,,0.00,weatherlink.com 1.10,2013-04-14 07:46:00,
2013-04-14 04:01:00,39.1,34.0,30.02,SSE,159,0.0,1.0,83,0.00,,,0.00,weatherlink.com 1.10,2013-04-14 08:01:00,
2013-04-14 04:16:00,38.9,35.0,30.02,SSE,160,0.0,0.0,85,0.00,,,0.00,weatherlink.com 1.10,2013-04-14 08:16:00,
2013-04-14 04:31:00,39.6,35.0,30.03,SSE,153,1.0,2.0,84,0.00,,,0.00,weatherlink.com 1.10,2013-04-14 08:31:00,
2013-04-14 04:46:00,40.1,35.0,30.03,SE,129,0.0,0.0,83,0.00,,,0.00,weatherlink.com 1.10,2013-04-14 08:46:00,
2013-04-14 05:01:00,40.6,36.0,30.03,SE,127,2.0,3.0,82,0.00,,,0.00,weatherlink.com 1.10,2013-04-14 09:01:00,
2013-04-14 05:16:00,41.1,35.0,30.04,SSE,159,0.0,3.0,80,0.00,,,0.00,weatherlink.com 1.10,2013-04-14 09:16:00,
2013-04-14 05:31:00,41.5,35.0,30.03,South,190,1.0,4.0,79,0.00,,,0.00,weatherlink.com 1.10,2013-04-14 09:31:00,
2013-04-14 05:47:00,41.6,36.0,30.02,East,99,2.0,5.0,80,0.00,,,0.00,weatherlink.com 1.10,2013-04-14 09:47:00,
2013-04-14 06:01:00,41.6,36.0,30.02,SSE,162,0.0,4.0,80,0.00,,,0.00,weatherlink.com 1.10,2013-04-14 10:01:00,
2013-04-14 06:17:00,41.8,36.0,30.00,North,10,1.0,4.0,80,0.00,,,0.00,weatherlink.com 1.10,2013-04-14 10:17:00,
2013-04-14 06:32:00,41.9,36.0,30.00,ENE,66,1.0,7.0,80,0.00,,,0.00,weatherlink.com 1.10,2013-04-14 10:32:00,
2013-04-14 06:47:00,41.6,36.0,30.00,SE,131,0.0,5.0,80,0.00,,,0.00,weatherlink.com 1.10,2013-04-14 10:47:00,
2013-04-14 07:02:00,41.6,36.0,29.99,NE,39,0.0,3.0,80,0.00,,,0.00,weatherlink.com 1.10,2013-04-14 11:02:00,
2013-04-14 07:17:00,41.9,36.0,29.99,SSE,148,1.0,4.0,79,0.00,,,0.00,weatherlink.com 1.10,2013-04-14 11:17:00,
2013-04-14 07:32:00,42.1,36.0,29.99,NE,51,0.0,4.0,79,0.00,,,0.00,weatherlink.com 1.10,2013-04-14 11:32:00,
2013-04-14 07:47:00,42.6,36.0,29.99,ESE,121,1.0,5.0,77,0.00,,,0.00,weatherlink.com 1.10,2013-04-14 11:47:00,
2013-04-14 08:02:00,43.1,36.0,29.99,WSW,250,1.0,6.0,77,0.00,,,0.00,weatherlink.com 1.10,2013-04-14 12:02:00,
2013-04-14 08:17:00,43.9,36.0,30.00,ENE,64,3.0,7.0,75,0.00,,,0.00,weatherlink.com 1.10,2013-04-14 12:17:00,
2013-04-14 08:32:00,43.7,37.0,30.02,ESE,105,4.0,7.0,77,0.00,,,0.00,weatherlink.com 1.10,2013-04-14 12:32:00,
2013-04-14 08:47:00,43.6,37.0,30.03,ESE,110,3.0,5.0,78,0.00,,,0.00,weatherlink.com 1.10,2013-04-14 12:47:00,
2013-04-14 09:02:00,43.8,38.0,30.03,East,89,1.0,5.0,79,0.00,,,0.00,weatherlink.com 1.10,2013-04-14 13:02:00,
2013-04-14 09:17:00,44.1,38.0,30.02,SE,131,6.0,8.0,78,0.00,,,0.00,weatherlink.com 1.10,2013-04-14 13:17:00,
2013-04-14 09:32:00,44.7,38.0,30.01,ENE,62,3.0,6.0,78,0.00,,,0.00,weatherlink.com 1.10,2013-04-14 13:32:00,
2013-04-14 09:47:00,46.3,39.0,30.00,ENE,74,5.0,5.0,77,0.00,,,0.00,weatherlink.com 1.10,2013-04-14 13:47:00,
2013-04-14 10:03:00,49.0,40.0,29.99,NE,50,4.0,11.0,72,0.00,,,0.00,weatherlink.com 1.10,2013-04-14 14:03:00,
2013-04-14 10:17:00,50.1,41.0,30.00,East,92,2.0,7.0,72,0.00,,,0.00,weatherlink.com 1.10,2013-04-14 14:17:00,
2013-04-14 10:32:00,51.4,42.0,29.98,WSW,255,2.0,6.0,70,0.00,,,0.00,weatherlink.com 1.10,2013-04-14 14:32:00,
2013-04-14 10:47:00,52.4,42.0,29.98,NNW,329,4.0,7.0,68,0.00,,,0.00,weatherlink.com 1.10,2013-04-14 14:47:00,
2013-04-14 11:02:00,54.1,43.0,29.98,East,90,4.0,8.0,66,0.00,,,0.00,weatherlink.com 1.10,2013-04-14 15:02:00,
2013-04-14 11:17:00,55.0,43.0,29.98,SE,145,3.0,9.0,64,0.00,,,0.00,weatherlink.com 1.10,2013-04-14 15:17:00,
2013-04-14 11:32:00,56.5,43.0,29.97,ENE,70,2.0,8.0,62,0.00,,,0.00,weatherlink.com 1.10,2013-04-14 15:32:00,
2013-04-14 11:47:00,58.2,44.0,29.96,NNW,343,1.0,7.0,59,0.00,,,0.00,weatherlink.com 1.10,2013-04-14 15:47:00,
2013-04-14 12:02:00,58.7,45.0,29.96,East,82,4.0,9.0,61,0.00,,,0.00,weatherlink.com 1.10,2013-04-14 16:02:00,
2013-04-14 12:18:00,60.2,45.0,29.96,SE,124,3.0,7.0,57,0.00,,,0.00,weatherlink.com 1.10,2013-04-14 16:18:00,
2013-04-14 12:33:00,61.4,46.0,29.95,NE,39,2.0,8.0,58,0.00,,,0.00,weatherlink.com 1.10,2013-04-14 16:33:00,
2013-04-14 12:48:00,62.5,46.0,29.95,NNE,25,4.0,5.0,55,0.00,,,0.00,weatherlink.com 1.10,2013-04-14 16:48:00,
2013-04-14 13:03:00,63.9,49.0,29.94,SSE,159,1.0,6.0,59,0.00,,,0.00,weatherlink.com 1.10,2013-04-14 17:03:00,
2013-04-14 13:33:00,64.8,48.0,29.92,East,96,2.0,10.0,54,0.00,,,0.00,weatherlink.com 1.10,2013-04-14 17:33:00,
2013-04-14 13:48:00,66.3,48.0,29.91,ESE,117,4.0,8.0,53,0.00,,,0.00,weatherlink.com 1.10,2013-04-14 17:48:00,
2013-04-14 14:03:00,67.3,51.0,29.92,South,183,2.0,7.0,56,0.00,,,0.00,weatherlink.com 1.10,2013-04-14 18:03:00,
2013-04-14 14:18:00,67.5,49.0,29.91,ENE,76,3.0,6.0,52,0.00,,,0.00,weatherlink.com 1.10,2013-04-14 18:18:00,
2013-04-14 14:33:00,67.7,48.0,29.90,SE,125,4.0,8.0,50,0.00,,,0.00,weatherlink.com 1.10,2013-04-14 18:33:00,
2013-04-14 14:48:00,67.4,50.0,29.89,SE,135,2.0,9.0,53,0.00,,,0.00,weatherlink.com 1.10,2013-04-14 18:48:00,
2013-04-14 15:03:00,68.8,50.0,29.88,SE,140,2.0,6.0,52,0.00,,,0.00,weatherlink.com 1.10,2013-04-14 19:03:00,
2013-04-14 15:18:00,69.1,51.0,29.88,SE,138,3.0,9.0,52,0.00,,,0.00,weatherlink.com 1.10,2013-04-14 19:18:00,
2013-04-14 15:33:00,69.4,49.0,29.88,SE,132,4.0,7.0,49,0.00,,,0.00,weatherlink.com 1.10,2013-04-14 19:33:00,
2013-04-14 15:48:00,69.3,50.0,29.88,ESE,107,3.0,7.0,51,0.00,,,0.00,weatherlink.com 1.10,2013-04-14 19:48:00,
2013-04-14 16:03:00,69.5,49.0,29.87,ESE,120,4.0,8.0,48,0.00,,,0.00,weatherlink.com 1.10,2013-04-14 20:03:00,
2013-04-14 16:18:00,69.5,48.0,29.86,ESE,103,3.0,10.0,46,0.00,,,0.00,weatherlink.com 1.10,2013-04-14 20:18:00,
2013-04-14 16:33:00,69.4,49.0,29.86,NE,49,3.0,10.0,48,0.00,,,0.00,weatherlink.com 1.10,2013-04-14 20:33:00,
2013-04-14 16:48:00,69.2,49.0,29.86,ENE,74,6.0,9.0,49,0.00,,,0.00,weatherlink.com 1.10,2013-04-14 20:48:00,
2013-04-14 17:03:00,68.8,48.0,29.85,East,84,5.0,11.0,48,0.00,,,0.00,weatherlink.com 1.10,2013-04-14 21:03:00,
2013-04-14 17:18:00,68.7,49.0,29.84,South,177,2.0,7.0,50,0.00,,,0.00,weatherlink.com 1.10,2013-04-14 21:18:00,
2013-04-14 17:33:00,68.6,49.0,29.84,ENE,69,3.0,9.0,49,0.00,,,0.00,weatherlink.com 1.10,2013-04-14 21:33:00,
2013-04-14 17:48:00,68.3,48.0,29.84,SE,128,2.0,11.0,49,0.00,,,0.00,weatherlink.com 1.10,2013-04-14 21:48:00,
2013-04-14 18:03:00,68.2,48.0,29.83,South,170,2.0,8.0,49,0.00,,,0.00,weatherlink.com 1.10,2013-04-14 22:03:00,
2013-04-14 18:18:00,68.0,47.0,29.83,NE,53,2.0,11.0,48,0.00,,,0.00,weatherlink.com 1.10,2013-04-14 22:18:00,
2013-04-14 18:33:00,67.8,48.0,29.83,North,4,2.0,8.0,50,0.00,,,0.00,weatherlink.com 1.10,2013-04-14 22:33:00,
2013-04-14 18:48:00,67.7,48.0,29.83,East,84,2.0,6.0,50,0.00,,,0.00,weatherlink.com 1.10,2013-04-14 22:48:00,
2013-04-14 19:03:00,67.9,47.0,29.83,NW,311,1.0,10.0,48,0.00,,,0.00,weatherlink.com 1.10,2013-04-14 23:03:00,
2013-04-14 19:19:00,68.7,48.0,29.82,SE,145,6.0,11.0,47,0.00,,,0.00,weatherlink.com 1.10,2013-04-14 23:19:00,
2013-04-14 19:34:00,68.5,47.0,29.82,SE,146,2.0,8.0,47,0.00,,,0.00,weatherlink.com 1.10,2013-04-14 23:34:00,
2013-04-14 19:49:00,67.1,47.0,29.82,East,84,1.0,7.0,49,0.00,,,0.00,weatherlink.com 1.10,2013-04-14 23:49:00,
2013-04-14 20:04:00,65.7,47.0,29.81,ENE,77,1.0,5.0,51,0.00,,,0.00,weatherlink.com 1.10,2013-04-15 00:04:00,
2013-04-14 20:19:00,64.5,47.0,29.82,NE,49,1.0,4.0,53,0.00,,,0.00,weatherlink.com 1.10,2013-04-15 00:19:00,
2013-04-14 20:34:00,63.4,47.0,29.82,ENE,73,1.0,7.0,55,0.00,,,0.00,weatherlink.com 1.10,2013-04-15 00:34:00,
2013-04-14 20:49:00,62.2,47.0,29.82,ESE,103,0.0,2.0,57,0.00,,,0.00,weatherlink.com 1.10,2013-04-15 00:49:00,
2013-04-14 21:04:00,61.0,46.0,29.83,SE,142,1.0,3.0,59,0.00,,,0.00,weatherlink.com 1.10,2013-04-15 01:04:00,
2013-04-14 21:19:00,60.4,47.0,29.83,East,85,0.0,3.0,61,0.00,,,0.00,weatherlink.com 1.10,2013-04-15 01:19:00,
2013-04-14 21:34:00,60.0,46.0,29.83,East,90,0.0,3.0,61,0.00,,,0.00,weatherlink.com 1.10,2013-04-15 01:34:00,
2013-04-14 21:48:00,59.6,46.0,29.83,ESE,121,0.0,2.0,62,0.00,,,0.00,weatherlink.com 1.10,2013-04-15 01:48:00,
2013-04-14 22:04:00,59.5,46.0,29.83,East,89,1.0,4.0,62,0.00,,,0.00,weatherlink.com 1.10,2013-04-15 02:04:00,
2013-04-14 22:19:00,59.0,46.0,29.83,ENE,70,2.0,4.0,63,0.00,,,0.00,weatherlink.com 1.10,2013-04-15 02:19:00,
2013-04-14 22:34:00,58.2,46.0,29.83,East,87,0.0,3.0,65,0.00,,,0.00,weatherlink.com 1.10,2013-04-15 02:34:00,
2013-04-14 22:49:00,57.5,46.0,29.83,South,186,0.0,2.0,66,0.00,,,0.00,weatherlink.com 1.10,2013-04-15 02:49:00,
2013-04-14 23:04:00,56.9,46.0,29.83,ESE,118,0.0,1.0,67,0.00,,,0.00,weatherlink.com 1.10,2013-04-15 03:04:00,
2013-04-14 23:19:00,56.7,46.0,29.83,SE,129,0.0,4.0,67,0.00,,,0.00,weatherlink.com 1.10,2013-04-15 03:19:00,
2013-04-14 23:34:00,56.8,46.0,29.83,SE,136,0.0,5.0,67,0.00,,,0.00,weatherlink.com 1.10,2013-04-15 03:34:00,
2013-04-14 23:48:00,56.8,45.0,29.84,SSE,163,2.0,4.0,66,0.00,,,0.00,weatherlink.com 1.10,2013-04-15 03:48:00,